createdAt,value
2023-03-17T00:01:41.557Z,22.00
2023-03-17T00:04:12.271Z,22.98
2023-03-17T00:06:40.256Z,23.77
2023-03-17T00:09:14.852Z,22.45
2023-03-17T00:11:42.727Z,23.85
2023-03-17T00:14:09.554Z,23.83
2023-03-17T00:16:42.746Z,22.77
2023-03-17T00:19:33.209Z,23.10
2023-03-17T00:22:01.355Z,23.10
2023-03-17T00:24:28.949Z,23.45
2023-03-17T00:26:55.668Z,23.05
2023-03-17T00:29:23.868Z,23.90
2023-03-17T00:31:51.033Z,24.17
2023-03-17T00:34:19.310Z,23.52
2023-03-17T00:36:49.584Z,24.80
2023-03-17T00:41:43.455Z,23.10
2023-03-17T00:44:10.133Z,24.58
2023-03-17T00:46:38.782Z,24.48
2023-03-17T00:49:19.236Z,23.73
2023-03-17T00:51:46.899Z,25.25
2023-03-17T00:54:15.552Z,24.75
2023-03-17T00:56:44.129Z,23.50
2023-03-17T00:59:25.857Z,22.98
2023-03-17T01:01:53.056Z,23.25
2023-03-17T01:04:20.937Z,24.67
2023-03-17T01:06:49.167Z,23.90
2023-03-17T01:09:18.315Z,23.83
2023-03-17T01:11:45.201Z,23.83
2023-03-17T01:14:12.997Z,24.27
2023-03-17T01:16:40.626Z,24.80
2023-03-17T01:19:07.784Z,23.95
2023-03-17T01:21:34.531Z,24.35
2023-03-17T01:24:01.459Z,24.25
2023-03-17T01:26:28.675Z,24.10
2023-03-17T01:28:55.398Z,23.98
2023-03-17T01:31:23.345Z,24.55
2023-03-17T01:33:51.189Z,24.48
2023-03-17T01:36:18.004Z,23.58
2023-03-17T01:38:47.879Z,24.02
2023-03-17T01:41:14.640Z,23.23
2023-03-17T01:43:41.534Z,23.60
2023-03-17T01:46:25.625Z,23.85
2023-03-17T01:48:55.134Z,24.63
2023-03-17T01:51:35.713Z,24.80
2023-03-17T01:54:10.428Z,24.15
2023-03-17T01:56:38.519Z,25.23
2023-03-17T01:59:08.212Z,24.42
2023-03-17T02:01:38.790Z,24.17
2023-03-17T02:04:06.723Z,24.40
2023-03-17T02:06:34.940Z,24.45
2023-03-17T02:09:02.582Z,24.02
2023-03-17T02:11:30.679Z,23.88
2023-03-17T02:13:57.532Z,23.98
2023-03-17T02:16:24.898Z,25.17
2023-03-17T02:18:51.652Z,24.30
2023-03-17T02:21:31.421Z,23.77
2023-03-17T02:24:01.827Z,24.55
2023-03-17T02:26:32.022Z,23.98
2023-03-17T02:28:59.106Z,23.70
2023-03-17T02:31:27.158Z,24.85
2023-03-17T02:33:54.592Z,24.83
2023-03-17T02:36:21.859Z,24.40
2023-03-17T02:38:49.092Z,24.10
2023-03-17T02:41:16.858Z,25.02
2023-03-17T02:43:43.599Z,24.45
2023-03-17T02:46:10.535Z,25.15
2023-03-17T02:48:38.062Z,24.27
2023-03-17T02:51:05.219Z,24.42
2023-03-17T02:53:32.084Z,25.40
2023-03-17T02:55:58.792Z,24.40
2023-03-17T02:58:25.555Z,24.65
2023-03-17T03:00:52.197Z,24.45
2023-03-17T03:03:19.084Z,25.80
2023-03-17T03:05:47.049Z,23.98
2023-03-17T03:08:13.808Z,24.75
2023-03-17T03:10:41.659Z,24.13
2023-03-17T03:13:08.568Z,24.17
2023-03-17T03:15:35.672Z,24.65
2023-03-17T03:18:02.450Z,24.15
2023-03-17T03:20:29.611Z,24.08
2023-03-17T03:22:56.517Z,23.17
2023-03-17T03:25:23.128Z,24.25
2023-03-17T03:27:49.775Z,25.60
2023-03-17T03:30:16.473Z,24.52
2023-03-17T03:32:43.137Z,24.55
2023-03-17T03:35:10.595Z,25.50
2023-03-17T03:37:37.315Z,25.40
2023-03-17T03:40:07.274Z,25.23
2023-03-17T03:42:33.923Z,24.90
2023-03-17T03:45:00.623Z,24.95
2023-03-17T03:47:27.321Z,25.02
2023-03-17T03:49:53.943Z,25.83
2023-03-17T03:52:21.114Z,25.10
2023-03-17T03:54:47.786Z,25.90
2023-03-17T03:57:14.480Z,24.70
2023-03-17T03:59:41.114Z,25.13
2023-03-17T04:02:09.551Z,24.80
2023-03-17T04:04:36.911Z,24.95
2023-03-17T04:07:03.581Z,25.00
2023-03-17T04:09:30.787Z,24.65
2023-03-17T04:11:57.404Z,25.67
2023-03-17T04:14:24.077Z,25.83
2023-03-17T04:16:50.844Z,25.80
2023-03-17T04:19:17.593Z,24.73
2023-03-17T04:21:44.261Z,25.27
2023-03-17T04:24:10.959Z,25.05
2023-03-17T04:26:37.590Z,25.52
2023-03-17T04:29:04.389Z,24.75
2023-03-17T04:31:31.468Z,24.85
2023-03-17T04:33:58.604Z,24.52
2023-03-17T04:36:25.284Z,23.67
2023-03-17T04:38:51.929Z,23.63
2023-03-17T04:41:19.062Z,22.00
2023-03-17T04:43:46.080Z,24.00
2023-03-17T04:46:12.988Z,24.08
2023-03-17T04:48:40.005Z,24.92
2023-03-17T04:51:06.608Z,24.08
2023-03-17T04:53:33.339Z,25.30
2023-03-17T04:55:59.950Z,24.98
2023-03-17T04:58:30.868Z,23.80
2023-03-17T05:00:58.369Z,25.92
2023-03-17T05:03:27.554Z,23.98
2023-03-17T05:05:55.329Z,24.30
2023-03-17T05:08:21.955Z,24.27
2023-03-17T05:10:48.764Z,25.98
2023-03-17T05:13:15.884Z,24.00
2023-03-17T05:15:48.461Z,23.70
2023-03-17T05:18:16.179Z,23.48
2023-03-17T05:20:43.071Z,23.75
2023-03-17T05:23:09.988Z,24.85
2023-03-17T05:25:36.757Z,23.60
2023-03-17T05:28:03.702Z,25.95
2023-03-17T05:30:30.988Z,25.30
2023-03-17T05:32:58.606Z,24.75
2023-03-17T05:35:25.585Z,24.85
2023-03-17T05:37:52.462Z,24.38
2023-03-17T05:40:19.456Z,25.38
2023-03-17T05:42:46.170Z,25.20
2023-03-17T05:45:13.038Z,26.77
2023-03-17T05:47:39.770Z,24.48
2023-03-17T05:50:06.627Z,25.35
2023-03-17T05:52:33.237Z,25.70
2023-03-17T05:54:59.863Z,26.10
2023-03-17T05:57:26.525Z,33.00
2023-03-17T05:59:53.227Z,34.20
2023-03-17T06:02:20.749Z,33.38
2023-03-17T06:04:47.512Z,33.53
2023-03-17T06:07:14.165Z,32.80
2023-03-17T06:09:41.581Z,32.45
2023-03-17T06:12:08.754Z,32.05
2023-03-17T06:14:36.016Z,31.13
2023-03-17T06:17:02.705Z,30.88
2023-03-17T06:19:29.316Z,32.60
2023-03-17T06:21:56.697Z,31.77
2023-03-17T06:24:23.330Z,31.85
2023-03-17T06:26:50.040Z,34.45
2023-03-17T06:29:16.606Z,33.45
2023-03-17T06:31:50.072Z,32.72
2023-03-17T06:34:21.407Z,32.42
2023-03-17T06:36:49.027Z,33.13
2023-03-17T06:39:16.385Z,32.88
2023-03-17T06:41:43.116Z,31.95
2023-03-17T06:44:09.920Z,33.95
2023-03-17T06:46:36.724Z,34.88
2023-03-17T06:49:03.579Z,33.63
2023-03-17T06:51:32.332Z,36.08
2023-03-17T06:53:58.981Z,37.42
2023-03-17T06:56:30.048Z,35.08
2023-03-17T06:58:57.784Z,36.97
2023-03-17T07:01:25.817Z,38.05
2023-03-17T07:03:52.920Z,35.78
2023-03-17T07:06:19.718Z,36.08
2023-03-17T07:08:47.434Z,36.55
2023-03-17T07:11:14.610Z,37.30
2023-03-17T07:13:41.818Z,36.33
2023-03-17T07:16:11.153Z,38.20
2023-03-17T07:18:39.285Z,38.88
2023-03-17T07:21:07.383Z,35.95
2023-03-17T07:23:34.045Z,37.22
2023-03-17T07:26:01.362Z,37.67
2023-03-17T07:28:28.090Z,37.60
2023-03-17T07:30:57.798Z,36.67
2023-03-17T07:33:25.206Z,37.42
2023-03-17T07:35:54.028Z,37.75
2023-03-17T07:38:21.178Z,35.75
2023-03-17T07:40:48.877Z,34.63
2023-03-17T07:43:16.698Z,35.47
2023-03-17T07:45:44.720Z,35.05
2023-03-17T07:48:11.434Z,34.78
2023-03-17T07:50:38.555Z,36.45
2023-03-17T07:53:05.331Z,35.97
2023-03-17T07:55:33.269Z,36.40
2023-03-17T07:58:00.337Z,35.90
2023-03-17T08:00:29.039Z,36.03
2023-03-17T08:03:08.994Z,35.10
2023-03-17T08:05:36.875Z,35.53
2023-03-17T08:08:05.188Z,36.17
2023-03-17T08:10:32.397Z,36.78
2023-03-17T08:12:59.301Z,37.45
2023-03-17T08:15:25.922Z,36.30
2023-03-17T08:17:53.569Z,36.55
2023-03-17T08:20:20.312Z,37.53
2023-03-17T08:22:46.954Z,39.75
2023-03-17T08:25:14.271Z,38.85
2023-03-17T08:27:42.199Z,34.13
2023-03-17T08:30:09.528Z,32.03
2023-03-17T08:32:36.786Z,34.22
2023-03-17T08:35:06.101Z,36.40
2023-03-17T08:37:32.753Z,33.35
2023-03-17T08:40:01.071Z,33.30
2023-03-17T08:42:27.737Z,33.05
2023-03-17T08:44:54.411Z,33.47
2023-03-17T08:47:21.591Z,32.38
2023-03-17T08:49:48.235Z,33.25
2023-03-17T08:52:15.008Z,37.05
2023-03-17T08:54:42.256Z,34.78
2023-03-17T08:57:08.932Z,36.20
2023-03-17T08:59:35.532Z,34.70
2023-03-17T09:02:02.140Z,35.55
2023-03-17T09:04:28.937Z,36.08
2023-03-17T09:07:03.250Z,35.70
2023-03-17T09:11:57.699Z,36.28
2023-03-17T09:14:25.151Z,35.42
2023-03-17T09:16:52.478Z,38.65
2023-03-17T09:19:19.201Z,34.10
2023-03-17T09:21:46.486Z,36.70
2023-03-17T09:24:13.583Z,34.92
2023-03-17T09:26:40.344Z,36.25
2023-03-17T09:29:07.856Z,35.00
2023-03-17T09:31:36.486Z,33.55
2023-03-17T09:34:05.065Z,35.63
2023-03-17T09:36:35.407Z,33.88
2023-03-17T09:39:02.221Z,34.40
2023-03-17T09:41:58.336Z,34.33
2023-03-17T09:44:58.761Z,35.40
2023-03-17T09:47:37.478Z,34.03
2023-03-17T09:50:19.110Z,34.83
2023-03-17T09:52:46.015Z,33.83
2023-03-17T09:55:22.417Z,34.63
2023-03-17T09:57:52.023Z,35.80
2023-03-17T10:00:24.065Z,41.92
2023-03-17T10:02:51.859Z,43.15
2023-03-17T10:05:25.923Z,41.35
2023-03-17T10:08:19.059Z,40.63
2023-03-17T10:10:53.817Z,44.33
2023-03-17T10:13:33.529Z,42.70
2023-03-17T10:16:14.467Z,45.83
2023-03-17T10:18:50.253Z,46.30
2023-03-17T10:21:29.788Z,46.95
2023-03-17T10:23:57.821Z,44.65
2023-03-17T10:26:33.054Z,47.58
2023-03-17T10:29:04.157Z,46.90
2023-03-17T10:31:34.506Z,48.33
2023-03-17T10:34:15.703Z,46.35
2023-03-17T10:36:45.711Z,51.17
2023-03-17T10:39:17.426Z,49.28
2023-03-17T10:41:58.188Z,50.50
2023-03-17T10:44:54.663Z,49.63
2023-03-17T10:47:44.573Z,50.50
2023-03-17T10:50:32.529Z,51.72
2023-03-17T10:53:27.693Z,52.17
2023-03-17T10:56:07.596Z,53.70
2023-03-17T10:58:39.137Z,50.72
2023-03-17T11:01:08.315Z,51.13
2023-03-17T11:03:41.765Z,52.80
2023-03-17T11:06:13.780Z,50.58
2023-03-17T11:08:54.705Z,51.40
2023-03-17T11:11:34.589Z,51.95
2023-03-17T11:14:06.138Z,53.10
2023-03-17T11:16:37.216Z,51.97
2023-03-17T11:19:11.528Z,53.00
2023-03-17T11:22:13.842Z,50.40
2023-03-17T11:25:14.923Z,52.88
2023-03-17T11:27:44.526Z,52.72
2023-03-17T11:30:20.497Z,51.72
2023-03-17T11:32:53.360Z,52.13
2023-03-17T11:35:34.622Z,50.72
2023-03-17T11:38:07.216Z,51.90
2023-03-17T11:41:04.735Z,51.42
2023-03-17T11:43:45.231Z,51.58
2023-03-17T11:46:28.776Z,53.70
2023-03-17T11:49:09.764Z,55.28
2023-03-17T11:51:43.014Z,50.97
2023-03-17T11:54:41.311Z,50.05
2023-03-17T11:57:16.089Z,51.47
2023-03-17T11:59:56.180Z,53.88
2023-03-17T12:02:42.509Z,52.38
2023-03-17T12:05:26.399Z,52.33
2023-03-17T12:08:04.684Z,51.75
2023-03-17T12:10:55.390Z,51.40
2023-03-17T12:13:25.440Z,52.03
2023-03-17T12:16:15.554Z,52.08
2023-03-17T12:18:54.644Z,52.05
2023-03-17T12:21:36.464Z,51.17
2023-03-17T12:24:38.209Z,50.63
2023-03-17T12:27:15.389Z,52.03
2023-03-17T12:29:43.726Z,53.60
2023-03-17T12:32:26.087Z,53.38
2023-03-17T12:35:04.935Z,52.13
2023-03-17T12:37:32.984Z,54.28
2023-03-17T12:40:02.069Z,54.20
2023-03-17T12:43:01.521Z,53.05
2023-03-17T12:45:39.859Z,53.25
2023-03-17T12:48:28.521Z,54.53
2023-03-17T12:51:13.368Z,55.22
2023-03-17T12:53:46.359Z,55.10
2023-03-17T12:56:24.443Z,55.78
2023-03-17T12:58:52.830Z,54.63
2023-03-17T13:01:34.110Z,54.25
2023-03-17T13:04:15.991Z,51.60
2023-03-17T13:07:09.788Z,54.55
2023-03-17T13:09:42.924Z,56.05
2023-03-17T13:12:41.852Z,50.17
2023-03-17T13:15:30.616Z,56.33
2023-03-17T13:18:15.447Z,54.30
2023-03-17T13:20:57.435Z,50.13
2023-03-17T13:23:45.614Z,56.88
2023-03-17T13:26:21.623Z,58.40
2023-03-17T13:28:50.866Z,61.30
2023-03-17T13:31:35.298Z,58.50
2023-03-17T13:34:20.055Z,56.03
2023-03-17T13:36:55.869Z,59.08
2023-03-17T13:39:50.091Z,60.63
2023-03-17T13:43:13.782Z,54.90
2023-03-17T13:45:43.815Z,54.67
2023-03-17T13:48:29.248Z,55.67
2023-03-17T13:54:06.570Z,55.50
2023-03-17T13:56:36.524Z,54.80
2023-03-17T13:59:04.980Z,58.67
2023-03-17T14:01:47.482Z,56.30
2023-03-17T14:04:41.897Z,51.55
2023-03-17T14:07:16.477Z,51.80
2023-03-17T14:09:43.727Z,52.00
2023-03-17T14:12:21.855Z,49.58
2023-03-17T14:15:11.374Z,50.50
2023-03-17T14:17:46.466Z,50.63
2023-03-17T14:22:46.081Z,49.08
2023-03-17T14:25:38.998Z,46.13
2023-03-17T14:28:15.253Z,46.35
2023-03-17T14:30:59.073Z,45.08
2023-03-17T14:33:28.240Z,51.38
2023-03-17T14:35:58.716Z,50.25
2023-03-17T14:38:51.281Z,49.63
2023-03-17T14:41:23.883Z,50.17
2023-03-17T14:43:52.228Z,53.45
2023-03-17T14:46:24.536Z,56.40
2023-03-17T14:49:00.728Z,54.67
2023-03-17T14:51:35.860Z,54.95
2023-03-17T14:54:10.085Z,54.47
2023-03-17T14:56:47.853Z,55.15
2023-03-17T14:59:24.874Z,54.45
2023-03-17T15:01:57.323Z,55.47
2023-03-17T15:04:32.725Z,53.72
2023-03-17T15:07:00.675Z,53.33
2023-03-17T15:09:36.534Z,55.80
2023-03-17T15:12:16.654Z,55.00
2023-03-17T15:14:45.257Z,58.35
2023-03-17T15:17:21.275Z,59.53
2023-03-17T15:19:52.371Z,60.40
2023-03-17T15:22:28.869Z,62.17
2023-03-17T15:25:16.372Z,64.03
2023-03-17T15:27:44.241Z,61.15
2023-03-17T15:30:12.576Z,56.42
2023-03-17T15:32:39.742Z,53.67
2023-03-17T15:35:11.027Z,54.53
2023-03-17T15:37:38.166Z,52.95
2023-03-17T15:40:05.653Z,49.45
2023-03-17T15:42:35.711Z,50.38
2023-03-17T15:45:03.733Z,50.78
2023-03-17T15:47:32.969Z,44.28
2023-03-17T15:50:19.944Z,45.72
2023-03-17T15:52:46.614Z,55.28
2023-03-17T15:55:22.811Z,48.45
2023-03-17T15:57:55.084Z,53.03
2023-03-17T16:00:23.924Z,44.78
2023-03-17T16:02:56.129Z,48.65
2023-03-17T16:05:27.984Z,47.85
2023-03-17T16:07:55.019Z,45.42
2023-03-17T16:10:25.926Z,43.05
2023-03-17T16:12:52.620Z,43.53
2023-03-17T16:15:28.728Z,45.65
2023-03-17T16:17:59.191Z,43.60
2023-03-17T16:20:36.208Z,40.78
2023-03-17T16:23:16.416Z,41.50
2023-03-17T16:25:44.449Z,39.90
2023-03-17T16:28:16.386Z,41.72
2023-03-17T16:30:43.921Z,43.00
2023-03-17T16:33:25.318Z,44.20
2023-03-17T16:35:53.444Z,43.92
2023-03-17T16:38:22.951Z,44.22
2023-03-17T16:40:52.325Z,45.95
2023-03-17T16:43:29.614Z,46.50
2023-03-17T16:45:58.811Z,45.45
2023-03-17T16:48:25.829Z,48.50
2023-03-17T16:50:53.044Z,48.10
2023-03-17T16:53:19.804Z,48.10
2023-03-17T16:55:46.923Z,57.20
2023-03-17T16:58:21.376Z,53.47
2023-03-17T17:00:49.557Z,46.95
2023-03-17T17:03:16.250Z,46.15
2023-03-17T17:05:43.604Z,45.72
2023-03-17T17:08:10.526Z,25.17
2023-03-17T17:10:37.613Z,25.38
2023-03-17T17:13:07.762Z,27.30
2023-03-17T17:15:36.089Z,29.23
2023-03-17T17:18:13.137Z,31.65
2023-03-17T17:20:41.535Z,29.15
2023-03-17T17:23:12.868Z,29.60
2023-03-17T17:25:40.040Z,28.60
2023-03-17T17:28:07.038Z,50.22
2023-03-17T17:30:34.459Z,32.08
2023-03-17T17:33:02.007Z,31.98
2023-03-17T17:35:33.261Z,31.15
2023-03-17T17:38:01.692Z,32.00
2023-03-17T17:40:29.338Z,45.03
2023-03-17T17:42:56.477Z,29.63
2023-03-17T17:45:23.527Z,33.95
2023-03-17T17:47:50.993Z,30.42
2023-03-17T17:50:26.392Z,33.83
2023-03-17T17:52:53.190Z,34.10
2023-03-17T17:55:20.311Z,32.88
2023-03-17T17:57:46.971Z,35.15
2023-03-17T18:00:16.626Z,41.30
2023-03-17T18:02:44.162Z,32.75
2023-03-17T18:05:12.241Z,36.83
2023-03-17T18:07:40.207Z,31.95
2023-03-17T18:10:07.744Z,48.67
2023-03-17T18:12:34.550Z,35.38
2023-03-17T18:15:01.149Z,33.17
2023-03-17T18:17:27.893Z,31.75
2023-03-17T18:19:54.986Z,34.65
2023-03-17T18:22:22.483Z,33.20
2023-03-17T18:24:49.209Z,30.00
2023-03-17T18:27:16.837Z,33.83
2023-03-17T18:29:43.894Z,31.58
2023-03-17T18:32:12.276Z,29.75
2023-03-17T18:34:43.473Z,37.65
2023-03-17T18:37:13.474Z,33.05
2023-03-17T18:39:41.492Z,30.83
2023-03-17T18:42:09.146Z,29.92
2023-03-17T18:44:36.259Z,30.08
2023-03-17T18:47:03.486Z,29.60
2023-03-17T18:49:30.579Z,29.50
2023-03-17T18:51:57.669Z,28.73
2023-03-17T18:54:24.683Z,28.95
2023-03-17T18:56:51.514Z,30.38
2023-03-17T18:59:18.206Z,28.90
2023-03-17T19:01:44.881Z,29.80
2023-03-17T19:04:11.806Z,34.53
2023-03-17T19:06:39.570Z,31.63
2023-03-17T19:09:06.912Z,31.75
2023-03-17T19:11:34.027Z,32.35
2023-03-17T19:14:00.697Z,32.70
2023-03-17T19:16:28.924Z,33.50
2023-03-17T19:18:56.523Z,130.60
2023-03-17T19:21:23.851Z,42.13
2023-03-17T19:23:51.976Z,39.28
2023-03-17T19:26:19.518Z,36.22
2023-03-17T19:28:46.551Z,38.05
2023-03-17T19:31:13.604Z,43.67
2023-03-17T19:33:40.830Z,41.38
2023-03-17T19:36:11.180Z,33.35
2023-03-17T19:38:38.047Z,31.52
2023-03-17T19:41:05.267Z,31.58
2023-03-17T19:43:40.417Z,30.33
2023-03-17T19:46:09.316Z,30.00
2023-03-17T19:48:37.206Z,32.33
2023-03-17T19:51:04.282Z,33.10
2023-03-17T19:53:31.208Z,31.75
2023-03-17T19:55:57.881Z,30.45
2023-03-17T19:58:24.684Z,30.38
2023-03-17T20:00:51.709Z,29.73
2023-03-17T20:03:18.796Z,40.72
2023-03-17T20:05:46.340Z,47.08
2023-03-17T20:08:14.409Z,32.38
2023-03-17T20:10:41.368Z,29.92
2023-03-17T20:13:08.184Z,29.30
2023-03-17T20:15:35.219Z,30.20
2023-03-17T20:18:02.204Z,29.67
2023-03-17T20:20:29.460Z,30.00
2023-03-17T20:22:56.306Z,29.20
2023-03-17T20:25:22.915Z,29.40
2023-03-17T20:27:49.968Z,31.33
2023-03-17T20:30:17.384Z,31.77
2023-03-17T20:32:44.138Z,30.77
2023-03-17T20:35:11.384Z,31.17
2023-03-17T20:37:38.696Z,31.33
2023-03-17T20:40:08.164Z,38.88
2023-03-17T20:42:34.933Z,39.83
2023-03-17T20:45:03.324Z,192.98
2023-03-17T20:47:30.579Z,57.22
2023-03-17T20:49:58.966Z,104.78
2023-03-17T20:52:30.319Z,49.72
2023-03-17T20:54:59.208Z,30.67
2023-03-17T20:57:26.218Z,29.85
2023-03-17T20:59:52.927Z,38.65
2023-03-17T21:02:19.769Z,65.13
2023-03-17T21:04:48.620Z,37.58
2023-03-17T21:07:17.138Z,39.67
2023-03-17T21:09:44.217Z,37.15
2023-03-17T21:12:16.628Z,38.08
2023-03-17T21:14:43.597Z,34.00
2023-03-17T21:17:11.019Z,31.77
2023-03-17T21:19:38.190Z,32.70
2023-03-17T21:22:06.047Z,38.00
2023-03-17T21:24:35.452Z,32.42
2023-03-17T21:27:05.321Z,33.00
2023-03-17T21:29:33.512Z,32.95
2023-03-17T21:32:01.534Z,34.22
2023-03-17T21:34:30.054Z,32.95
2023-03-17T21:36:57.280Z,33.58
2023-03-17T21:39:24.827Z,37.17
2023-03-17T21:41:51.733Z,31.45
2023-03-17T21:44:19.180Z,30.65
2023-03-17T21:46:47.724Z,35.75
2023-03-17T21:49:16.203Z,44.00
2023-03-17T21:51:44.295Z,36.55
2023-03-17T21:54:11.573Z,34.70
2023-03-17T21:56:39.432Z,32.50
2023-03-17T21:59:10.669Z,32.38
2023-03-17T22:01:38.922Z,30.75
2023-03-17T22:04:06.039Z,31.60
2023-03-17T22:06:35.117Z,33.65
2023-03-17T22:09:02.696Z,31.95
2023-03-17T22:11:29.310Z,31.08
2023-03-17T22:13:57.657Z,31.27
2023-03-17T22:16:25.207Z,34.10
2023-03-17T22:18:52.578Z,32.55
2023-03-17T22:21:20.399Z,29.98
2023-03-17T22:23:47.677Z,29.73
2023-03-17T22:26:17.987Z,30.58
2023-03-17T22:28:46.068Z,27.40
2023-03-17T22:31:15.464Z,27.95
2023-03-17T22:33:42.691Z,27.63
2023-03-17T22:36:10.149Z,28.63
2023-03-17T22:38:36.847Z,27.80
2023-03-17T22:41:09.144Z,26.65
2023-03-17T22:43:36.797Z,27.05
2023-03-17T22:46:04.368Z,26.13
2023-03-17T22:48:32.509Z,26.58
2023-03-17T22:51:04.461Z,25.55
2023-03-17T22:53:31.550Z,26.35
2023-03-17T22:55:58.806Z,25.23
2023-03-17T22:58:26.590Z,25.92
2023-03-17T23:00:54.373Z,24.80
2023-03-17T23:03:22.370Z,25.58
2023-03-17T23:05:51.560Z,25.67
2023-03-17T23:08:19.610Z,25.60
2023-03-17T23:10:47.695Z,27.15
2023-03-17T23:13:14.645Z,26.23
2023-03-17T23:15:41.675Z,27.20
2023-03-17T23:18:09.158Z,26.02
2023-03-17T23:20:37.353Z,25.77
2023-03-17T23:23:04.606Z,27.00
2023-03-17T23:25:31.521Z,25.35
2023-03-17T23:27:58.145Z,26.02
2023-03-17T23:30:25.351Z,25.75
2023-03-17T23:32:52.174Z,25.90
2023-03-17T23:35:20.261Z,24.35
2023-03-17T23:37:47.165Z,25.75
2023-03-17T23:40:16.958Z,26.63
2023-03-17T23:42:54.413Z,25.80
2023-03-17T23:45:23.045Z,26.73
2023-03-17T23:47:51.434Z,26.63
2023-03-17T23:50:19.338Z,25.88
2023-03-17T23:52:47.022Z,26.42
2023-03-17T23:55:14.610Z,26.42
2023-03-17T23:57:41.436Z,27.42
